createdAt,value
2017-12-23T00:01:10.053Z,70.00
2017-12-23T00:03:14.394Z,69.50
2017-12-23T00:05:18.640Z,69.80
2017-12-23T00:07:24.423Z,68.90
2017-12-23T00:09:38.739Z,69.10
2017-12-23T00:11:42.203Z,69.00
2017-12-23T00:13:46.421Z,68.50
2017-12-23T00:15:49.937Z,68.80
2017-12-23T00:17:53.822Z,69.00
2017-12-23T00:19:57.899Z,69.50
2017-12-23T00:22:01.326Z,68.00
2017-12-23T00:24:04.792Z,68.60
2017-12-23T00:26:10.019Z,67.80
2017-12-23T00:28:16.187Z,68.10
2017-12-23T00:30:20.448Z,68.80
2017-12-23T00:32:23.878Z,68.70
2017-12-23T00:34:32.294Z,68.60
2017-12-23T00:36:35.775Z,68.00
2017-12-23T00:38:39.188Z,68.30
2017-12-23T00:40:42.683Z,67.80
2017-12-23T00:42:46.898Z,68.50
2017-12-23T00:44:51.092Z,67.50
2017-12-23T00:46:54.555Z,67.10
2017-12-23T00:48:57.967Z,69.60
2017-12-23T00:51:01.394Z,68.90
2017-12-23T00:53:04.837Z,69.20
2017-12-23T00:55:08.248Z,70.20
2017-12-23T00:57:11.694Z,69.50
2017-12-23T00:59:15.896Z,69.90
2017-12-23T01:01:19.307Z,69.90
2017-12-23T01:03:22.783Z,69.90
2017-12-23T01:05:26.203Z,70.10
2017-12-23T01:07:29.644Z,70.10
2017-12-23T01:09:33.889Z,71.10
2017-12-23T01:11:38.104Z,71.30
2017-12-23T01:13:42.317Z,69.20
2017-12-23T01:15:46.504Z,70.20
2017-12-23T01:17:49.917Z,70.40
2017-12-23T01:19:53.357Z,70.00
2017-12-23T01:21:56.774Z,70.20
2017-12-23T01:24:00.242Z,70.50
2017-12-23T01:26:03.650Z,69.20
2017-12-23T01:28:07.093Z,70.20
2017-12-23T01:30:11.306Z,70.10
2017-12-23T01:32:15.495Z,70.80
2017-12-23T01:34:19.751Z,70.20
2017-12-23T01:36:23.186Z,70.10
2017-12-23T01:38:26.630Z,69.60
2017-12-23T01:40:30.896Z,69.90
2017-12-23T01:42:34.334Z,69.90
2017-12-23T01:44:38.543Z,70.10
2017-12-23T01:46:41.997Z,70.00
2017-12-23T01:48:48.355Z,70.00
2017-12-23T01:50:51.785Z,69.00
2017-12-23T01:52:55.250Z,68.90
2017-12-23T01:54:58.775Z,69.10
2017-12-23T01:57:02.190Z,69.80
2017-12-23T01:59:05.602Z,68.80
2017-12-23T02:01:09.081Z,68.80
2017-12-23T02:03:12.499Z,69.20
2017-12-23T02:05:15.975Z,68.80
2017-12-23T02:07:19.421Z,68.00
2017-12-23T02:09:22.865Z,68.80
2017-12-23T02:11:26.359Z,68.90
2017-12-23T02:13:29.800Z,68.80
2017-12-23T02:15:33.244Z,68.90
2017-12-23T02:17:36.711Z,68.90
2017-12-23T02:19:40.897Z,69.30
2017-12-23T02:21:44.334Z,69.40
2017-12-23T02:23:48.505Z,69.80
2017-12-23T02:25:51.930Z,69.80
2017-12-23T02:27:55.417Z,69.90
2017-12-23T02:29:59.610Z,69.00
2017-12-23T02:32:03.869Z,71.00
2017-12-23T02:34:07.321Z,69.00
2017-12-23T02:36:11.534Z,69.50
2017-12-23T02:38:15.863Z,69.40
2017-12-23T02:40:20.048Z,69.00
2017-12-23T02:42:24.340Z,69.20
2017-12-23T02:44:27.782Z,68.40
2017-12-23T02:46:31.215Z,68.60
2017-12-23T02:48:34.675Z,69.10
2017-12-23T02:50:38.891Z,69.50
2017-12-23T02:52:42.315Z,68.60
2017-12-23T02:54:45.792Z,68.90
2017-12-23T02:56:49.204Z,69.20
2017-12-23T02:58:52.686Z,69.10
2017-12-23T03:00:56.116Z,69.10
2017-12-23T03:02:59.563Z,69.20
2017-12-23T03:05:02.986Z,69.70
2017-12-23T03:07:06.479Z,69.30
2017-12-23T03:09:10.694Z,69.40
2017-12-23T03:11:14.139Z,69.50
2017-12-23T03:13:17.600Z,69.10
2017-12-23T03:15:21.048Z,68.90
2017-12-23T03:17:24.460Z,68.90
2017-12-23T03:19:28.735Z,68.90
2017-12-23T03:21:32.915Z,69.40
2017-12-23T03:23:37.106Z,68.90
2017-12-23T03:25:40.575Z,68.60
2017-12-23T03:27:44.019Z,69.00
2017-12-23T03:29:47.498Z,69.00
2017-12-23T03:31:50.917Z,68.80
2017-12-23T03:33:54.326Z,69.00
2017-12-23T03:35:57.795Z,69.20
2017-12-23T03:38:01.216Z,68.70
2017-12-23T03:40:04.670Z,68.80
2017-12-23T03:42:08.104Z,68.60
2017-12-23T03:44:12.276Z,69.50
2017-12-23T03:46:15.760Z,69.40
2017-12-23T03:48:19.207Z,69.90
2017-12-23T03:50:22.646Z,69.20
2017-12-23T03:52:26.117Z,69.20
2017-12-23T03:54:30.154Z,69.70
2017-12-23T03:56:33.596Z,68.90
2017-12-23T03:58:37.040Z,69.80
2017-12-23T04:00:40.442Z,69.30
2017-12-23T04:02:43.915Z,69.20
2017-12-23T04:04:47.372Z,68.70
2017-12-23T04:06:50.828Z,69.00
2017-12-23T04:08:54.273Z,68.30
2017-12-23T04:10:57.701Z,68.80
2017-12-23T04:13:01.186Z,68.60
2017-12-23T04:15:04.596Z,68.50
2017-12-23T04:17:08.822Z,68.80
2017-12-23T04:19:12.996Z,68.80
2017-12-23T04:21:16.405Z,68.70
2017-12-23T04:23:19.855Z,69.10
2017-12-23T04:25:23.247Z,68.80
2017-12-23T04:27:26.698Z,69.20
2017-12-23T04:29:30.102Z,68.90
2017-12-23T04:31:34.301Z,69.10
2017-12-23T04:33:37.754Z,69.10
2017-12-23T04:35:41.182Z,71.20
2017-12-23T04:37:45.398Z,70.30
2017-12-23T04:39:48.795Z,70.10
2017-12-23T04:41:53.624Z,70.20
2017-12-23T04:43:57.855Z,70.30
2017-12-23T04:46:01.267Z,70.20
2017-12-23T04:48:04.714Z,70.20
2017-12-23T04:50:08.153Z,70.10
2017-12-23T04:52:11.556Z,69.90
2017-12-23T04:54:14.985Z,70.00
2017-12-23T04:56:18.390Z,69.90
2017-12-23T04:58:22.578Z,69.00
2017-12-23T05:00:26.014Z,68.80
2017-12-23T05:02:29.453Z,69.60
2017-12-23T05:04:32.903Z,69.30
2017-12-23T05:06:36.328Z,69.80
2017-12-23T05:08:39.769Z,70.20
2017-12-23T05:10:43.973Z,70.10
2017-12-23T05:12:48.151Z,70.20
2017-12-23T05:14:52.417Z,69.40
2017-12-23T05:16:55.866Z,69.50
2017-12-23T05:18:59.297Z,69.30
2017-12-23T05:21:03.493Z,69.20
2017-12-23T05:23:06.914Z,69.40
2017-12-23T05:25:10.431Z,68.60
2017-12-23T05:27:13.861Z,69.60
2017-12-23T05:29:17.301Z,69.70
2017-12-23T05:31:20.767Z,69.00
2017-12-23T05:33:24.940Z,68.50
2017-12-23T05:35:29.322Z,68.80
2017-12-23T05:37:33.587Z,68.90
2017-12-23T05:39:37.778Z,69.20
2017-12-23T05:41:41.240Z,69.00
2017-12-23T05:43:44.697Z,70.10
2017-12-23T05:45:48.110Z,68.90
2017-12-23T05:47:52.341Z,69.30
2017-12-23T05:49:55.760Z,69.00
2017-12-23T05:51:59.233Z,69.60
2017-12-23T05:54:02.705Z,68.70
2017-12-23T05:56:06.118Z,68.90
2017-12-23T05:58:09.571Z,68.00
2017-12-23T06:00:13.761Z,68.80
2017-12-23T06:02:17.989Z,69.40
2017-12-23T06:04:22.224Z,69.00
2017-12-23T06:06:25.629Z,69.00
2017-12-23T06:08:29.099Z,68.20
2017-12-23T06:10:33.305Z,68.10
2017-12-23T06:12:37.533Z,68.10
2017-12-23T06:14:40.940Z,68.30
2017-12-23T06:16:44.359Z,68.90
2017-12-23T06:18:47.840Z,68.20
2017-12-23T06:20:51.262Z,69.10
2017-12-23T06:22:54.660Z,68.20
2017-12-23T06:24:58.111Z,67.90
2017-12-23T06:27:01.525Z,68.10
2017-12-23T06:29:04.968Z,68.00
2017-12-23T06:31:09.161Z,67.60
2017-12-23T06:33:12.579Z,67.70
2017-12-23T06:35:16.051Z,67.70
2017-12-23T06:37:19.475Z,68.40
2017-12-23T06:39:22.942Z,67.60
2017-12-23T06:41:26.354Z,67.90
2017-12-23T06:43:29.758Z,67.00
2017-12-23T06:45:33.203Z,66.70
2017-12-23T06:47:38.304Z,67.00
2017-12-23T06:49:42.571Z,67.70
2017-12-23T06:51:46.741Z,67.80
2017-12-23T06:53:51.050Z,67.90
2017-12-23T06:55:54.543Z,67.30
2017-12-23T06:57:58.042Z,66.20
2017-12-23T07:00:01.533Z,66.20
2017-12-23T07:02:05.378Z,65.60
2017-12-23T07:04:08.818Z,65.90
2017-12-23T07:06:12.252Z,65.30
2017-12-23T07:08:15.692Z,65.60
2017-12-23T07:10:19.143Z,65.70
2017-12-23T07:12:22.566Z,66.40
2017-12-23T07:14:26.046Z,67.20
2017-12-23T07:16:30.251Z,67.00
2017-12-23T07:18:34.432Z,67.10
2017-12-23T07:20:37.844Z,67.40
2017-12-23T07:22:42.090Z,66.90
2017-12-23T07:24:45.530Z,67.10
2017-12-23T07:26:48.977Z,67.10
2017-12-23T07:28:52.406Z,66.90
2017-12-23T07:30:55.883Z,66.90
2017-12-23T07:32:59.296Z,66.50
2017-12-23T07:35:02.720Z,67.70
2017-12-23T07:37:06.935Z,67.60
2017-12-23T07:39:10.363Z,67.50
2017-12-23T07:41:13.805Z,66.50
2017-12-23T07:43:17.250Z,67.70
2017-12-23T07:45:20.718Z,67.40
2017-12-23T07:47:24.215Z,67.30
2017-12-23T07:49:28.415Z,67.10
2017-12-23T07:51:32.751Z,66.90
2017-12-23T07:53:36.962Z,66.50
2017-12-23T07:55:40.391Z,66.30
2017-12-23T07:57:43.838Z,66.50
2017-12-23T07:59:48.015Z,67.90
2017-12-23T08:01:51.483Z,66.80
2017-12-23T08:03:54.923Z,66.80
2017-12-23T08:05:58.419Z,66.50
2017-12-23T08:08:01.905Z,66.50
2017-12-23T08:10:05.447Z,64.90
2017-12-23T08:12:09.031Z,65.10
2017-12-23T08:14:13.243Z,66.00
2017-12-23T08:16:16.719Z,65.70
2017-12-23T08:18:20.930Z,65.70
2017-12-23T08:20:24.409Z,65.50
2017-12-23T08:22:27.889Z,65.20
2017-12-23T08:24:31.301Z,64.90
2017-12-23T08:26:35.544Z,65.30
2017-12-23T08:28:39.773Z,65.60
2017-12-23T08:30:43.470Z,65.50
2017-12-23T08:32:46.988Z,65.20
2017-12-23T08:34:50.457Z,65.60
2017-12-23T08:36:53.899Z,66.40
2017-12-23T08:38:57.395Z,65.10
2017-12-23T08:41:00.839Z,65.10
2017-12-23T08:43:04.281Z,65.10
2017-12-23T08:45:07.828Z,64.50
2017-12-23T08:47:11.377Z,65.20
2017-12-23T08:49:14.854Z,65.50
2017-12-23T08:51:18.284Z,65.20
2017-12-23T08:53:22.463Z,64.20
2017-12-23T08:55:25.906Z,63.80
2017-12-23T08:57:29.331Z,64.20
2017-12-23T08:59:33.007Z,64.00
2017-12-23T09:01:36.504Z,65.40
2017-12-23T09:03:40.748Z,64.70
2017-12-23T09:05:44.224Z,64.70
2017-12-23T09:07:48.674Z,64.60
2017-12-23T09:09:53.118Z,63.60
2017-12-23T09:11:56.652Z,63.70
2017-12-23T09:14:00.110Z,63.00
2017-12-23T09:16:03.676Z,63.50
2017-12-23T09:18:07.571Z,63.20
2017-12-23T09:20:11.067Z,63.40
2017-12-23T09:22:14.579Z,62.40
2017-12-23T09:24:18.024Z,62.80
2017-12-23T09:26:21.570Z,62.70
2017-12-23T09:28:25.231Z,63.60
2017-12-23T09:30:28.688Z,64.30
2017-12-23T09:32:32.214Z,63.70
2017-12-23T09:34:35.675Z,64.10
2017-12-23T09:36:39.151Z,63.20
2017-12-23T09:38:42.593Z,63.00
2017-12-23T09:40:46.058Z,63.20
2017-12-23T09:42:50.307Z,63.60
2017-12-23T09:44:53.846Z,63.60
2017-12-23T09:46:57.357Z,63.00
2017-12-23T09:49:01.640Z,62.40
2017-12-23T09:51:05.120Z,62.60
2017-12-23T09:53:08.596Z,61.90
2017-12-23T09:55:13.282Z,62.10
2017-12-23T09:57:17.486Z,61.40
2017-12-23T09:59:21.837Z,60.80
2017-12-23T10:01:25.321Z,60.50
2017-12-23T10:03:29.126Z,60.80
2017-12-23T10:05:32.605Z,61.30
2017-12-23T10:07:36.305Z,60.60
2017-12-23T10:09:40.912Z,60.60
2017-12-23T10:11:44.361Z,61.10
2017-12-23T10:13:49.648Z,61.10
2017-12-23T10:15:53.276Z,61.30
2017-12-23T10:17:56.748Z,60.70
2017-12-23T10:20:00.394Z,59.30
2017-12-23T10:22:05.122Z,58.20
2017-12-23T10:24:09.516Z,57.20
2017-12-23T10:26:14.055Z,57.30
2017-12-23T10:28:17.528Z,56.20
2017-12-23T10:30:21.255Z,55.70
2017-12-23T10:32:27.610Z,56.20
2017-12-23T10:34:31.757Z,56.10
2017-12-23T10:36:35.188Z,56.60
2017-12-23T10:38:38.644Z,56.50
2017-12-23T10:40:42.125Z,56.60
2017-12-23T10:42:47.386Z,55.80
2017-12-23T10:44:52.492Z,56.90
2017-12-23T10:46:56.024Z,56.60
2017-12-23T10:49:00.195Z,56.20
2017-12-23T10:51:03.687Z,56.00
2017-12-23T10:53:07.103Z,56.50
2017-12-23T10:55:10.538Z,56.00
2017-12-23T10:57:13.972Z,56.60
2017-12-23T10:59:17.462Z,56.80
2017-12-23T11:01:20.905Z,55.40
2017-12-23T11:03:24.324Z,56.30
2017-12-23T11:05:27.742Z,56.60
2017-12-23T11:07:31.188Z,55.90
2017-12-23T11:09:34.670Z,56.10
2017-12-23T11:11:38.147Z,55.40
2017-12-23T11:13:41.573Z,55.30
2017-12-23T11:15:45.024Z,55.60
2017-12-23T11:17:48.487Z,53.20
2017-12-23T11:19:51.967Z,54.40
2017-12-23T11:21:55.677Z,54.40
2017-12-23T11:23:59.444Z,54.90
2017-12-23T11:26:03.757Z,54.80
2017-12-23T11:28:07.738Z,54.70
2017-12-23T11:30:11.238Z,55.10
2017-12-23T11:32:14.732Z,54.60
2017-12-23T11:34:18.200Z,55.00
2017-12-23T11:36:22.438Z,54.10
2017-12-23T11:38:25.878Z,54.10
2017-12-23T11:40:29.346Z,53.90
2017-12-23T11:42:33.078Z,54.50
2017-12-23T11:44:36.513Z,52.70
2017-12-23T11:46:39.938Z,54.20
2017-12-23T11:48:43.564Z,54.60
2017-12-23T11:50:47.191Z,54.20
2017-12-23T11:52:50.639Z,54.20
2017-12-23T11:54:54.270Z,54.50
2017-12-23T11:56:57.712Z,54.10
2017-12-23T11:59:02.115Z,56.10
2017-12-23T12:01:06.329Z,55.20
2017-12-23T12:03:09.871Z,55.10
2017-12-23T12:05:13.596Z,55.70
2017-12-23T12:07:18.019Z,56.50
2017-12-23T12:09:21.614Z,56.50
2017-12-23T12:11:25.171Z,55.50
2017-12-23T12:13:28.633Z,55.10
2017-12-23T12:15:32.201Z,55.50
2017-12-23T12:17:37.300Z,55.90
2017-12-23T12:19:41.943Z,56.20
2017-12-23T12:21:45.396Z,57.00
2017-12-23T12:23:50.116Z,55.80
2017-12-23T12:25:54.212Z,56.50
2017-12-23T12:27:58.148Z,56.80
2017-12-23T12:30:01.689Z,56.30
2017-12-23T12:32:05.676Z,56.60
2017-12-23T12:34:10.952Z,56.30
2017-12-23T12:36:15.643Z,56.30
2017-12-23T12:38:20.343Z,55.90
2017-12-23T12:40:24.402Z,56.20
2017-12-23T12:42:29.267Z,56.30
2017-12-23T12:44:33.618Z,56.50
2017-12-23T12:46:37.812Z,56.80
2017-12-23T12:48:43.708Z,57.60
2017-12-23T12:50:47.966Z,56.30
2017-12-23T12:52:51.980Z,56.60
2017-12-23T12:54:56.967Z,57.30
2017-12-23T12:57:01.717Z,57.50
2017-12-23T12:59:07.282Z,56.90
2017-12-23T13:01:11.784Z,56.70
2017-12-23T13:03:15.314Z,56.30
2017-12-23T13:05:18.877Z,55.40
2017-12-23T13:07:22.635Z,55.20
2017-12-23T13:09:26.113Z,54.50
2017-12-23T13:11:29.758Z,54.30
2017-12-23T13:13:33.197Z,55.40
2017-12-23T13:15:36.700Z,55.50
2017-12-23T13:17:40.146Z,56.10
2017-12-23T13:19:44.332Z,57.40
2017-12-23T13:21:48.898Z,57.70
2017-12-23T13:23:52.679Z,59.40
2017-12-23T13:25:56.437Z,60.20
2017-12-23T13:28:00.221Z,59.90
2017-12-23T13:30:04.108Z,60.90
2017-12-23T13:32:07.944Z,61.30
2017-12-23T13:34:11.591Z,60.90
2017-12-23T13:36:15.089Z,61.00
2017-12-23T13:38:18.561Z,61.30
2017-12-23T13:40:22.007Z,61.30
2017-12-23T13:42:27.416Z,60.70
2017-12-23T13:44:33.543Z,61.20
2017-12-23T13:46:37.178Z,61.20
2017-12-23T13:48:42.171Z,60.40
2017-12-23T13:50:45.751Z,60.50
2017-12-23T13:52:49.618Z,60.50
2017-12-23T13:54:53.626Z,58.90
2017-12-23T13:56:57.102Z,58.60
2017-12-23T13:59:00.706Z,59.40
2017-12-23T14:01:06.316Z,59.30
2017-12-23T14:03:11.788Z,59.10
2017-12-23T14:05:17.132Z,59.70
2017-12-23T14:07:23.427Z,59.50
2017-12-23T14:09:28.663Z,59.60
2017-12-23T14:11:32.774Z,59.00
2017-12-23T14:13:37.434Z,59.90
2017-12-23T14:15:42.269Z,60.30
2017-12-23T14:17:49.433Z,59.80
2017-12-23T14:19:53.348Z,59.30
2017-12-23T14:21:58.958Z,58.20
2017-12-23T14:24:02.862Z,58.40
2017-12-23T14:26:08.174Z,59.60
2017-12-23T14:28:11.630Z,59.50
2017-12-23T14:30:16.819Z,58.70
2017-12-23T14:32:21.079Z,59.70
2017-12-23T14:34:25.241Z,59.00
2017-12-23T14:36:28.667Z,59.20
2017-12-23T14:38:32.572Z,59.70
2017-12-23T14:40:36.070Z,59.00
2017-12-23T14:42:39.564Z,58.70
2017-12-23T14:44:43.128Z,58.80
2017-12-23T14:46:46.605Z,59.50
2017-12-23T14:48:50.109Z,60.10
2017-12-23T14:50:54.446Z,58.90
2017-12-23T14:52:58.710Z,59.10
2017-12-23T14:55:02.256Z,59.10
2017-12-23T14:57:05.690Z,59.80
2017-12-23T14:59:09.107Z,59.50
2017-12-23T15:01:12.584Z,58.60
2017-12-23T15:03:16.014Z,59.30
2017-12-23T15:05:20.515Z,60.50
2017-12-23T15:07:24.895Z,61.20
2017-12-23T15:09:30.047Z,61.80
2017-12-23T15:11:33.527Z,61.70
2017-12-23T15:13:37.066Z,61.30
2017-12-23T15:15:41.307Z,61.90
2017-12-23T15:17:44.829Z,61.90
2017-12-23T15:19:48.343Z,61.40
2017-12-23T15:21:51.843Z,61.10
2017-12-23T15:23:55.417Z,61.90
2017-12-23T15:25:58.816Z,62.00
2017-12-23T15:28:02.306Z,62.50
2017-12-23T15:30:06.275Z,62.50
2017-12-23T15:32:11.777Z,62.70
2017-12-23T15:34:15.199Z,62.80
2017-12-23T15:36:19.246Z,61.80
2017-12-23T15:38:22.710Z,60.80
2017-12-23T15:40:26.920Z,60.80
2017-12-23T15:42:31.305Z,61.30
2017-12-23T15:44:34.970Z,61.30
2017-12-23T15:46:39.637Z,61.10
2017-12-23T15:48:44.792Z,60.90
2017-12-23T15:50:49.030Z,60.60
2017-12-23T15:52:53.770Z,60.60
2017-12-23T15:54:57.226Z,60.70
2017-12-23T15:57:00.734Z,62.20
2017-12-23T15:59:04.238Z,61.40
2017-12-23T16:01:08.537Z,61.70
2017-12-23T16:03:12.817Z,61.50
2017-12-23T16:05:16.477Z,61.70
2017-12-23T16:07:21.766Z,61.80
2017-12-23T16:09:26.268Z,61.70
2017-12-23T16:11:30.103Z,61.20
2017-12-23T16:13:33.935Z,61.10
2017-12-23T16:15:37.659Z,61.10
2017-12-23T16:17:42.033Z,61.30
2017-12-23T16:19:45.810Z,61.40
2017-12-23T16:21:50.271Z,61.70
2017-12-23T16:23:54.215Z,61.30
2017-12-23T16:25:58.571Z,61.80
2017-12-23T16:28:02.144Z,61.60
2017-12-23T16:30:05.686Z,61.00
2017-12-23T16:32:09.243Z,60.30
2017-12-23T16:34:12.705Z,60.90
2017-12-23T16:36:16.176Z,61.10
2017-12-23T16:38:21.131Z,61.10
2017-12-23T16:40:28.309Z,61.00
2017-12-23T16:42:33.240Z,61.10
2017-12-23T16:44:38.471Z,61.10
2017-12-23T16:46:44.090Z,61.50
2017-12-23T16:48:47.719Z,61.20
2017-12-23T16:50:54.350Z,60.90
2017-12-23T16:52:58.844Z,60.90
2017-12-23T16:55:02.636Z,61.10
2017-12-23T16:57:07.345Z,60.90
2017-12-23T16:59:11.530Z,60.80
2017-12-23T17:01:15.131Z,61.10
2017-12-23T17:03:18.991Z,61.20
2017-12-23T17:05:22.405Z,61.10
2017-12-23T17:07:25.841Z,61.10
2017-12-23T17:09:29.258Z,61.00
2017-12-23T17:11:32.767Z,60.90
2017-12-23T17:13:36.229Z,61.30
2017-12-23T17:15:39.790Z,61.20
2017-12-23T17:17:43.628Z,61.10
2017-12-23T17:19:47.891Z,60.90
2017-12-23T17:21:51.599Z,61.60
2017-12-23T17:23:55.059Z,60.90
2017-12-23T17:25:58.569Z,60.30
2017-12-23T17:28:02.287Z,60.50
2017-12-23T17:30:18.571Z,61.10
2017-12-23T17:32:22.431Z,61.50
2017-12-23T17:34:27.694Z,61.70
2017-12-23T17:36:31.393Z,62.10
2017-12-23T17:38:35.070Z,61.10
2017-12-23T17:40:39.847Z,61.30
2017-12-23T17:42:43.671Z,60.80
2017-12-23T17:44:47.564Z,61.70
2017-12-23T17:46:52.365Z,61.20
2017-12-23T17:48:56.975Z,60.20
2017-12-23T17:51:00.412Z,60.30
2017-12-23T17:53:05.942Z,61.40
2017-12-23T17:55:09.396Z,61.00
2017-12-23T17:57:13.101Z,60.90
2017-12-23T17:59:17.147Z,60.00
2017-12-23T18:01:21.872Z,61.00
2017-12-23T18:03:28.126Z,61.50
2017-12-23T18:05:32.183Z,60.70
2017-12-23T18:07:35.618Z,61.10
2017-12-23T18:09:39.954Z,60.80
2017-12-23T18:11:43.886Z,60.90
2017-12-23T18:13:48.075Z,61.30
2017-12-23T18:15:51.559Z,61.20
2017-12-23T18:17:55.173Z,61.60
2017-12-23T18:19:58.881Z,60.90
2017-12-23T18:22:02.320Z,61.30
2017-12-23T18:24:07.840Z,61.70
2017-12-23T18:26:11.516Z,61.70
2017-12-23T18:28:15.168Z,60.70
2017-12-23T18:30:18.603Z,61.00
2017-12-23T18:32:22.751Z,60.30
2017-12-23T18:34:26.270Z,60.60
2017-12-23T18:36:29.788Z,61.30
2017-12-23T18:38:34.163Z,60.40
2017-12-23T18:40:38.484Z,60.30
2017-12-23T18:42:41.945Z,60.60
2017-12-23T18:44:46.290Z,59.80
2017-12-23T18:46:49.748Z,59.60
2017-12-23T18:48:53.954Z,57.90
2017-12-23T18:50:58.289Z,57.80
2017-12-23T18:53:02.472Z,58.20
2017-12-23T18:55:05.966Z,58.00
2017-12-23T18:57:10.250Z,59.70
2017-12-23T18:59:15.620Z,57.90
2017-12-23T19:01:19.903Z,58.00
2017-12-23T19:03:24.192Z,57.40
2017-12-23T19:05:27.854Z,57.20
2017-12-23T19:07:33.121Z,57.00
2017-12-23T19:09:38.344Z,57.10
2017-12-23T19:11:42.923Z,59.10
2017-12-23T19:13:46.326Z,60.70
2017-12-23T19:15:50.755Z,58.90
2017-12-23T19:17:54.284Z,61.10
2017-12-23T19:19:58.574Z,60.90
2017-12-23T19:22:01.999Z,61.30
2017-12-23T19:24:05.462Z,60.40
2017-12-23T19:26:09.675Z,60.90
2017-12-23T19:28:13.156Z,61.00
2017-12-23T19:30:16.645Z,61.10
2017-12-23T19:32:20.998Z,60.40
2017-12-23T19:34:25.259Z,58.70
2017-12-23T19:36:29.227Z,58.60
2017-12-23T19:38:32.872Z,59.10
2017-12-23T19:40:36.310Z,57.70
2017-12-23T19:42:39.786Z,58.20
2017-12-23T19:44:46.254Z,59.00
2017-12-23T19:46:49.663Z,59.10
2017-12-23T19:48:54.140Z,59.20
2017-12-23T19:50:59.436Z,59.70
2017-12-23T19:53:05.269Z,59.40
2017-12-23T19:55:08.809Z,58.80
2017-12-23T19:57:12.247Z,59.70
2017-12-23T19:59:15.708Z,58.50
2017-12-23T20:01:19.134Z,58.70
2017-12-23T20:03:22.553Z,59.20
2017-12-23T20:05:26.017Z,58.00
2017-12-23T20:07:30.177Z,56.70
2017-12-23T20:09:33.780Z,56.90
2017-12-23T20:11:39.194Z,57.60
2017-12-23T20:13:42.767Z,57.70
2017-12-23T20:15:46.229Z,57.70
2017-12-23T20:17:50.442Z,58.70
2017-12-23T20:19:54.798Z,58.40
2017-12-23T20:21:59.075Z,58.40
2017-12-23T20:24:03.269Z,58.30
2017-12-23T20:26:07.438Z,58.30
2017-12-23T20:28:10.966Z,57.40
2017-12-23T20:30:15.222Z,56.70
2017-12-23T20:32:18.688Z,56.60
2017-12-23T20:34:22.282Z,58.30
2017-12-23T20:36:25.713Z,58.20
2017-12-23T20:38:29.622Z,58.10
2017-12-23T20:40:33.135Z,58.40
2017-12-23T20:42:36.550Z,58.90
2017-12-23T20:44:40.123Z,58.90
2017-12-23T20:46:44.173Z,59.00
2017-12-23T20:48:47.829Z,59.20
2017-12-23T20:50:51.433Z,59.20
2017-12-23T20:52:55.929Z,59.60
2017-12-23T20:54:59.394Z,59.70
2017-12-23T20:57:03.759Z,58.70
2017-12-23T20:59:07.166Z,59.40
2017-12-23T21:01:10.637Z,59.10
2017-12-23T21:03:14.038Z,58.50
2017-12-23T21:05:17.549Z,58.90
2017-12-23T21:07:21.798Z,57.70
2017-12-23T21:09:25.259Z,57.70
2017-12-23T21:11:28.740Z,58.00
2017-12-23T21:13:32.164Z,58.00
2017-12-23T21:15:36.484Z,57.70
2017-12-23T21:17:40.774Z,57.30
2017-12-23T21:19:45.930Z,57.40
2017-12-23T21:21:49.407Z,57.30
2017-12-23T21:23:53.474Z,57.20
2017-12-23T21:25:56.920Z,56.90
2017-12-23T21:28:00.374Z,55.80
2017-12-23T21:30:03.859Z,56.20
2017-12-23T21:32:07.394Z,56.20
2017-12-23T21:34:10.858Z,55.70
2017-12-23T21:36:14.479Z,54.50
2017-12-23T21:38:18.740Z,55.30
2017-12-23T21:40:23.234Z,55.30
2017-12-23T21:42:27.425Z,54.40
2017-12-23T21:44:30.863Z,54.10
2017-12-23T21:46:34.310Z,54.30
2017-12-23T21:48:37.753Z,54.20
2017-12-23T21:50:41.909Z,54.80
2017-12-23T21:52:45.458Z,54.70
2017-12-23T21:54:48.923Z,54.80
2017-12-23T21:56:52.896Z,54.80
2017-12-23T21:58:57.469Z,53.60
2017-12-23T22:01:01.947Z,54.00
2017-12-23T22:03:05.464Z,54.10
2017-12-23T22:05:08.954Z,52.80
2017-12-23T22:07:13.162Z,54.30
2017-12-23T22:09:17.189Z,54.30
2017-12-23T22:11:21.620Z,54.90
2017-12-23T22:13:25.029Z,55.00
2017-12-23T22:15:28.717Z,55.30
2017-12-23T22:17:32.241Z,56.10
2017-12-23T22:19:35.827Z,56.10
2017-12-23T22:21:39.319Z,57.20
2017-12-23T22:23:42.824Z,56.60
2017-12-23T22:25:46.363Z,56.50
2017-12-23T22:27:50.815Z,56.10
2017-12-23T22:29:54.659Z,57.50
2017-12-23T22:31:58.133Z,56.80
2017-12-23T22:34:01.676Z,57.30
2017-12-23T22:36:05.118Z,57.70
2017-12-23T22:38:09.374Z,57.60
2017-12-23T22:40:12.929Z,57.80
2017-12-23T22:42:29.228Z,58.70
2017-12-23T22:44:32.659Z,58.90
2017-12-23T22:46:36.069Z,58.90
2017-12-23T22:48:39.514Z,59.30
2017-12-23T22:50:43.277Z,58.30
2017-12-23T22:52:47.634Z,57.70
2017-12-23T22:54:51.062Z,57.60
2017-12-23T22:56:54.506Z,57.50
2017-12-23T22:58:57.969Z,58.00
2017-12-23T23:01:02.157Z,57.80
2017-12-23T23:03:05.672Z,57.90
2017-12-23T23:05:09.970Z,56.90
2017-12-23T23:07:14.338Z,57.30
2017-12-23T23:09:17.773Z,57.40
2017-12-23T23:11:21.190Z,57.60
2017-12-23T23:13:25.359Z,56.90
2017-12-23T23:15:28.850Z,56.80
2017-12-23T23:17:32.291Z,58.20
2017-12-23T23:19:36.505Z,57.70
2017-12-23T23:21:40.682Z,57.30
2017-12-23T23:23:44.111Z,57.40
2017-12-23T23:25:47.554Z,57.30
2017-12-23T23:27:50.975Z,58.00
2017-12-23T23:29:55.216Z,57.90
2017-12-23T23:31:59.389Z,57.90
2017-12-23T23:34:02.789Z,58.20
2017-12-23T23:36:06.211Z,58.00
2017-12-23T23:38:10.386Z,57.30
2017-12-23T23:40:13.790Z,57.20
2017-12-23T23:42:17.259Z,55.10
2017-12-23T23:44:20.682Z,55.70
2017-12-23T23:46:24.109Z,55.70
2017-12-23T23:48:27.511Z,54.10
2017-12-23T23:50:30.991Z,53.90
2017-12-23T23:52:34.434Z,54.40
2017-12-23T23:54:37.826Z,53.90
2017-12-23T23:56:41.283Z,54.60
2017-12-23T23:58:44.675Z,55.20
